sensor_id;sensor_type;location;lat;lon;timestamp;P1;durP1;ratioP1;P2;durP2;ratioP2
77432;SDS011;66752;48.576;8.876;2024-02-23T00:02:06;0.47;;;0.20;;
77432;SDS011;66752;48.576;8.876;2024-02-23T00:04:32;0.55;;;0.20;;
77432;SDS011;66752;48.576;8.876;2024-02-23T00:06:58;0.95;;;0.30;;
77432;SDS011;66752;48.576;8.876;2024-02-23T00:09:24;1.10;;;0.30;;
77432;SDS011;66752;48.576;8.876;2024-02-23T00:11:52;1.17;;;0.43;;
77432;SDS011;66752;48.576;8.876;2024-02-23T00:14:19;1.33;;;0.38;;
77432;SDS011;66752;48.576;8.876;2024-02-23T00:16:45;1.83;;;0.30;;
77432;SDS011;66752;48.576;8.876;2024-02-23T00:19:12;0.63;;;0.20;;
77432;SDS011;66752;48.576;8.876;2024-02-23T00:26:31;0.70;;;0.40;;
77432;SDS011;66752;48.576;8.876;2024-02-23T00:28:57;0.30;;;0.20;;
77432;SDS011;66752;48.576;8.876;2024-02-23T00:31:23;2.42;;;0.43;;
77432;SDS011;66752;48.576;8.876;2024-02-23T00:33:49;0.85;;;0.25;;
77432;SDS011;66752;48.576;8.876;2024-02-23T00:36:15;0.50;;;0.20;;
77432;SDS011;66752;48.576;8.876;2024-02-23T00:38:41;0.63;;;0.20;;
77432;SDS011;66752;48.576;8.876;2024-02-23T00:41:07;1.13;;;0.28;;
77432;SDS011;66752;48.576;8.876;2024-02-23T00:43:39;0.70;;;0.20;;
77432;SDS011;66752;48.576;8.876;2024-02-23T00:46:06;1.65;;;0.40;;
77432;SDS011;66752;48.576;8.876;2024-02-23T00:48:32;1.33;;;0.40;;
77432;SDS011;66752;48.576;8.876;2024-02-23T00:50:58;0.80;;;0.30;;
77432;SDS011;66752;48.576;8.876;2024-02-23T00:53:24;1.45;;;0.30;;
77432;SDS011;66752;48.576;8.876;2024-02-23T00:55:50;0.40;;;0.20;;
77432;SDS011;66752;48.576;8.876;2024-02-23T00:58:16;1.02;;;0.35;;
77432;SDS011;66752;48.576;8.876;2024-02-23T01:00:42;0.55;;;0.28;;
77432;SDS011;66752;48.576;8.876;2024-02-23T01:03:08;1.75;;;0.25;;
77432;SDS011;66752;48.576;8.876;2024-02-23T01:05:33;1.05;;;0.30;;
77432;SDS011;66752;48.576;8.876;2024-02-23T01:07:59;1.73;;;0.30;;
77432;SDS011;66752;48.576;8.876;2024-02-23T01:10:25;1.10;;;0.38;;
77432;SDS011;66752;48.576;8.876;2024-02-23T01:12:52;2.78;;;0.43;;
77432;SDS011;66752;48.576;8.876;2024-02-23T01:15:18;3.47;;;0.35;;
77432;SDS011;66752;48.576;8.876;2024-02-23T01:17:44;3.75;;;0.50;;
77432;SDS011;66752;48.576;8.876;2024-02-23T01:20:10;3.13;;;0.55;;
77432;SDS011;66752;48.576;8.876;2024-02-23T01:22:36;2.00;;;0.60;;
77432;SDS011;66752;48.576;8.876;2024-02-23T01:25:02;0.47;;;0.30;;
77432;SDS011;66752;48.576;8.876;2024-02-23T01:27:28;1.70;;;0.40;;
77432;SDS011;66752;48.576;8.876;2024-02-23T01:29:54;0.77;;;0.32;;
77432;SDS011;66752;48.576;8.876;2024-02-23T01:32:20;1.35;;;0.40;;
77432;SDS011;66752;48.576;8.876;2024-02-23T01:34:46;0.80;;;0.28;;
77432;SDS011;66752;48.576;8.876;2024-02-23T01:37:12;1.65;;;0.35;;
77432;SDS011;66752;48.576;8.876;2024-02-23T01:39:38;2.50;;;0.40;;
77432;SDS011;66752;48.576;8.876;2024-02-23T01:42:04;0.60;;;0.30;;
77432;SDS011;66752;48.576;8.876;2024-02-23T01:44:30;0.73;;;0.20;;
77432;SDS011;66752;48.576;8.876;2024-02-23T01:46:56;3.85;;;0.50;;
77432;SDS011;66752;48.576;8.876;2024-02-23T01:49:22;1.00;;;0.30;;
77432;SDS011;66752;48.576;8.876;2024-02-23T01:51:54;0.52;;;0.30;;
77432;SDS011;66752;48.576;8.876;2024-02-23T01:54:20;2.85;;;0.60;;
77432;SDS011;66752;48.576;8.876;2024-02-23T01:56:46;2.35;;;0.30;;
77432;SDS011;66752;48.576;8.876;2024-02-23T01:59:12;2.95;;;0.80;;
77432;SDS011;66752;48.576;8.876;2024-02-23T02:01:39;0.93;;;0.50;;
77432;SDS011;66752;48.576;8.876;2024-02-23T02:04:05;2.72;;;0.50;;
77432;SDS011;66752;48.576;8.876;2024-02-23T02:06:31;1.83;;;0.45;;
77432;SDS011;66752;48.576;8.876;2024-02-23T02:08:57;2.30;;;0.60;;
77432;SDS011;66752;48.576;8.876;2024-02-23T02:11:22;2.05;;;0.40;;
77432;SDS011;66752;48.576;8.876;2024-02-23T02:13:48;4.47;;;0.60;;
77432;SDS011;66752;48.576;8.876;2024-02-23T02:16:14;4.68;;;0.60;;
77432;SDS011;66752;48.576;8.876;2024-02-23T02:18:40;1.25;;;0.28;;
77432;SDS011;66752;48.576;8.876;2024-02-23T02:21:06;0.43;;;0.20;;
77432;SDS011;66752;48.576;8.876;2024-02-23T02:23:32;1.83;;;0.40;;
77432;SDS011;66752;48.576;8.876;2024-02-23T02:25:58;1.25;;;0.47;;
77432;SDS011;66752;48.576;8.876;2024-02-23T02:28:25;3.15;;;0.70;;
77432;SDS011;66752;48.576;8.876;2024-02-23T02:30:51;1.08;;;0.40;;
77432;SDS011;66752;48.576;8.876;2024-02-23T02:33:18;1.60;;;0.40;;
77432;SDS011;66752;48.576;8.876;2024-02-23T02:35:44;1.20;;;0.38;;
77432;SDS011;66752;48.576;8.876;2024-02-23T02:38:10;0.98;;;0.38;;
77432;SDS011;66752;48.576;8.876;2024-02-23T02:40:36;0.70;;;0.30;;
77432;SDS011;66752;48.576;8.876;2024-02-23T02:43:02;1.05;;;0.40;;
77432;SDS011;66752;48.576;8.876;2024-02-23T02:45:28;2.47;;;0.45;;
77432;SDS011;66752;48.576;8.876;2024-02-23T02:47:54;3.53;;;0.63;;
77432;SDS011;66752;48.576;8.876;2024-02-23T02:50:21;2.13;;;0.40;;
77432;SDS011;66752;48.576;8.876;2024-02-23T02:52:47;3.28;;;0.50;;
77432;SDS011;66752;48.576;8.876;2024-02-23T02:55:13;3.63;;;0.68;;
77432;SDS011;66752;48.576;8.876;2024-02-23T02:57:39;2.53;;;0.57;;
77432;SDS011;66752;48.576;8.876;2024-02-23T03:00:05;2.53;;;0.32;;
77432;SDS011;66752;48.576;8.876;2024-02-23T03:02:33;2.15;;;0.40;;
77432;SDS011;66752;48.576;8.876;2024-02-23T03:04:59;0.60;;;0.25;;
77432;SDS011;66752;48.576;8.876;2024-02-23T03:07:25;1.65;;;0.95;;
77432;SDS011;66752;48.576;8.876;2024-02-23T03:09:51;1.27;;;0.40;;
77432;SDS011;66752;48.576;8.876;2024-02-23T03:12:18;1.95;;;0.57;;
77432;SDS011;66752;48.576;8.876;2024-02-23T03:14:44;2.47;;;0.65;;
77432;SDS011;66752;48.576;8.876;2024-02-23T03:17:10;1.75;;;0.50;;
77432;SDS011;66752;48.576;8.876;2024-02-23T03:19:36;3.25;;;0.43;;
77432;SDS011;66752;48.576;8.876;2024-02-23T03:22:02;0.63;;;0.22;;
77432;SDS011;66752;48.576;8.876;2024-02-23T03:24:28;2.72;;;0.50;;
77432;SDS011;66752;48.576;8.876;2024-02-23T03:26:54;2.55;;;0.50;;
77432;SDS011;66752;48.576;8.876;2024-02-23T03:29:20;0.55;;;0.40;;
77432;SDS011;66752;48.576;8.876;2024-02-23T03:31:50;4.72;;;0.65;;
77432;SDS011;66752;48.576;8.876;2024-02-23T03:34:16;2.15;;;0.57;;
77432;SDS011;66752;48.576;8.876;2024-02-23T03:36:42;1.80;;;0.47;;
77432;SDS011;66752;48.576;8.876;2024-02-23T03:39:08;2.83;;;0.35;;
77432;SDS011;66752;48.576;8.876;2024-02-23T03:41:35;1.17;;;0.45;;
77432;SDS011;66752;48.576;8.876;2024-02-23T03:44:01;1.75;;;0.35;;
77432;SDS011;66752;48.576;8.876;2024-02-23T03:46:27;1.23;;;0.50;;
77432;SDS011;66752;48.576;8.876;2024-02-23T03:48:53;2.05;;;0.20;;
77432;SDS011;66752;48.576;8.876;2024-02-23T03:51:19;1.90;;;0.43;;
77432;SDS011;66752;48.576;8.876;2024-02-23T03:53:45;2.80;;;0.70;;
77432;SDS011;66752;48.576;8.876;2024-02-23T03:56:11;0.93;;;0.30;;
77432;SDS011;66752;48.576;8.876;2024-02-23T03:58:37;1.70;;;0.40;;
77432;SDS011;66752;48.576;8.876;2024-02-23T04:01:03;1.38;;;0.35;;
77432;SDS011;66752;48.576;8.876;2024-02-23T04:03:29;6.25;;;0.60;;
77432;SDS011;66752;48.576;8.876;2024-02-23T04:05:55;1.13;;;0.40;;
77432;SDS011;66752;48.576;8.876;2024-02-23T04:08:21;2.55;;;0.50;;
77432;SDS011;66752;48.576;8.876;2024-02-23T04:10:47;0.77;;;0.30;;
77432;SDS011;66752;48.576;8.876;2024-02-23T04:13:13;1.98;;;0.63;;
77432;SDS011;66752;48.576;8.876;2024-02-23T04:15:39;1.42;;;0.47;;
77432;SDS011;66752;48.576;8.876;2024-02-23T04:18:06;3.90;;;0.70;;
77432;SDS011;66752;48.576;8.876;2024-02-23T04:20:32;1.98;;;0.60;;
77432;SDS011;66752;48.576;8.876;2024-02-23T04:22:58;0.90;;;0.47;;
77432;SDS011;66752;48.576;8.876;2024-02-23T04:25:24;3.15;;;0.75;;
77432;SDS011;66752;48.576;8.876;2024-02-23T04:27:50;3.67;;;1.02;;
77432;SDS011;66752;48.576;8.876;2024-02-23T04:30:16;3.97;;;0.77;;
77432;SDS011;66752;48.576;8.876;2024-02-23T04:32:42;5.47;;;0.88;;
77432;SDS011;66752;48.576;8.876;2024-02-23T04:35:09;1.90;;;0.68;;
77432;SDS011;66752;48.576;8.876;2024-02-23T04:37:35;3.45;;;0.90;;
77432;SDS011;66752;48.576;8.876;2024-02-23T04:40:01;4.07;;;0.75;;
77432;SDS011;66752;48.576;8.876;2024-02-23T04:42:29;1.52;;;0.70;;
77432;SDS011;66752;48.576;8.876;2024-02-23T04:44:55;3.50;;;0.68;;
77432;SDS011;66752;48.576;8.876;2024-02-23T04:47:21;1.25;;;0.63;;
77432;SDS011;66752;48.576;8.876;2024-02-23T04:49:47;4.15;;;0.75;;
77432;SDS011;66752;48.576;8.876;2024-02-23T04:54:40;3.13;;;0.80;;
77432;SDS011;66752;48.576;8.876;2024-02-23T04:57:06;2.30;;;0.75;;
77432;SDS011;66752;48.576;8.876;2024-02-23T04:59:32;1.73;;;0.70;;
77432;SDS011;66752;48.576;8.876;2024-02-23T05:01:58;4.68;;;1.23;;
77432;SDS011;66752;48.576;8.876;2024-02-23T05:04:24;3.00;;;0.80;;
77432;SDS011;66752;48.576;8.876;2024-02-23T05:06:51;2.65;;;0.85;;
77432;SDS011;66752;48.576;8.876;2024-02-23T05:09:17;2.15;;;0.70;;
77432;SDS011;66752;48.576;8.876;2024-02-23T05:11:43;2.90;;;0.80;;
77432;SDS011;66752;48.576;8.876;2024-02-23T05:14:11;4.50;;;0.80;;
77432;SDS011;66752;48.576;8.876;2024-02-23T05:16:37;3.05;;;1.00;;
77432;SDS011;66752;48.576;8.876;2024-02-23T05:19:02;4.00;;;1.25;;
77432;SDS011;66752;48.576;8.876;2024-02-23T05:21:29;5.22;;;1.67;;
77432;SDS011;66752;48.576;8.876;2024-02-23T05:23:56;2.92;;;1.13;;
77432;SDS011;66752;48.576;8.876;2024-02-23T05:26:22;5.25;;;1.50;;
77432;SDS011;66752;48.576;8.876;2024-02-23T05:28:48;7.18;;;2.22;;
77432;SDS011;66752;48.576;8.876;2024-02-23T05:31:14;5.55;;;2.38;;
77432;SDS011;66752;48.576;8.876;2024-02-23T05:33:40;4.95;;;1.20;;
77432;SDS011;66752;48.576;8.876;2024-02-23T05:36:06;5.90;;;1.77;;
77432;SDS011;66752;48.576;8.876;2024-02-23T05:38:32;10.65;;;3.85;;
77432;SDS011;66752;48.576;8.876;2024-02-23T05:40:58;6.93;;;2.67;;
77432;SDS011;66752;48.576;8.876;2024-02-23T05:43:24;6.88;;;2.03;;
77432;SDS011;66752;48.576;8.876;2024-02-23T05:45:50;4.25;;;1.50;;
77432;SDS011;66752;48.576;8.876;2024-02-23T05:48:16;5.13;;;1.38;;
77432;SDS011;66752;48.576;8.876;2024-02-23T05:50:43;3.92;;;1.20;;
77432;SDS011;66752;48.576;8.876;2024-02-23T05:53:10;6.53;;;2.00;;
77432;SDS011;66752;48.576;8.876;2024-02-23T05:55:36;25.55;;;9.93;;
77432;SDS011;66752;48.576;8.876;2024-02-23T05:58:01;16.10;;;6.97;;
77432;SDS011;66752;48.576;8.876;2024-02-23T06:00:28;24.95;;;10.45;;
77432;SDS011;66752;48.576;8.876;2024-02-23T06:02:56;20.58;;;6.97;;
77432;SDS011;66752;48.576;8.876;2024-02-23T06:05:22;12.40;;;4.72;;
77432;SDS011;66752;48.576;8.876;2024-02-23T06:07:48;14.68;;;5.28;;
77432;SDS011;66752;48.576;8.876;2024-02-23T06:10:14;9.90;;;3.78;;
77432;SDS011;66752;48.576;8.876;2024-02-23T06:12:40;9.65;;;3.25;;
77432;SDS011;66752;48.576;8.876;2024-02-23T06:15:06;6.85;;;2.00;;
77432;SDS011;66752;48.576;8.876;2024-02-23T06:17:32;3.97;;;1.33;;
77432;SDS011;66752;48.576;8.876;2024-02-23T06:19:58;5.75;;;1.23;;
77432;SDS011;66752;48.576;8.876;2024-02-23T06:22:24;3.75;;;1.20;;
77432;SDS011;66752;48.576;8.876;2024-02-23T06:24:50;8.52;;;1.40;;
77432;SDS011;66752;48.576;8.876;2024-02-23T06:27:16;2.63;;;0.80;;
77432;SDS011;66752;48.576;8.876;2024-02-23T06:29:42;2.65;;;0.90;;
77432;SDS011;66752;48.576;8.876;2024-02-23T06:32:08;3.25;;;1.05;;
77432;SDS011;66752;48.576;8.876;2024-02-23T06:34:34;1.92;;;0.60;;
77432;SDS011;66752;48.576;8.876;2024-02-23T06:37:00;3.55;;;1.05;;
77432;SDS011;66752;48.576;8.876;2024-02-23T06:39:26;2.88;;;0.85;;
77432;SDS011;66752;48.576;8.876;2024-02-23T06:41:52;4.32;;;0.90;;
77432;SDS011;66752;48.576;8.876;2024-02-23T06:44:18;3.83;;;1.08;;
77432;SDS011;66752;48.576;8.876;2024-02-23T06:46:44;3.63;;;0.93;;
77432;SDS011;66752;48.576;8.876;2024-02-23T06:49:10;4.85;;;1.50;;
77432;SDS011;66752;48.576;8.876;2024-02-23T06:51:36;5.93;;;1.73;;
77432;SDS011;66752;48.576;8.876;2024-02-23T06:54:04;3.72;;;1.05;;
77432;SDS011;66752;48.576;8.876;2024-02-23T06:56:30;4.13;;;1.27;;
77432;SDS011;66752;48.576;8.876;2024-02-23T06:58:56;4.43;;;1.20;;
77432;SDS011;66752;48.576;8.876;2024-02-23T07:01:22;7.30;;;1.02;;
77432;SDS011;66752;48.576;8.876;2024-02-23T07:03:47;2.83;;;1.13;;
77432;SDS011;66752;48.576;8.876;2024-02-23T07:06:15;2.22;;;0.73;;
77432;SDS011;66752;48.576;8.876;2024-02-23T07:08:43;6.18;;;1.00;;
77432;SDS011;66752;48.576;8.876;2024-02-23T07:11:09;5.28;;;0.80;;
77432;SDS011;66752;48.576;8.876;2024-02-23T07:13:35;2.35;;;0.75;;
77432;SDS011;66752;48.576;8.876;2024-02-23T07:16:01;2.05;;;0.75;;
77432;SDS011;66752;48.576;8.876;2024-02-23T07:18:28;2.17;;;0.70;;
77432;SDS011;66752;48.576;8.876;2024-02-23T07:20:54;2.58;;;0.90;;
77432;SDS011;66752;48.576;8.876;2024-02-23T07:23:20;4.65;;;0.88;;
77432;SDS011;66752;48.576;8.876;2024-02-23T07:25:47;2.47;;;0.70;;
77432;SDS011;66752;48.576;8.876;2024-02-23T07:28:15;4.80;;;0.80;;
77432;SDS011;66752;48.576;8.876;2024-02-23T07:30:44;3.63;;;0.90;;
77432;SDS011;66752;48.576;8.876;2024-02-23T07:33:10;3.38;;;0.82;;
77432;SDS011;66752;48.576;8.876;2024-02-23T07:35:36;3.17;;;0.70;;
77432;SDS011;66752;48.576;8.876;2024-02-23T07:38:02;7.88;;;1.15;;
77432;SDS011;66752;48.576;8.876;2024-02-23T07:40:29;3.40;;;0.80;;
77432;SDS011;66752;48.576;8.876;2024-02-23T07:42:56;3.10;;;0.75;;
77432;SDS011;66752;48.576;8.876;2024-02-23T07:45:22;2.92;;;0.70;;
77432;SDS011;66752;48.576;8.876;2024-02-23T07:47:48;2.80;;;0.90;;
77432;SDS011;66752;48.576;8.876;2024-02-23T07:50:14;2.35;;;0.70;;
77432;SDS011;66752;48.576;8.876;2024-02-23T07:52:41;2.22;;;0.63;;
77432;SDS011;66752;48.576;8.876;2024-02-23T07:55:07;4.28;;;0.95;;
77432;SDS011;66752;48.576;8.876;2024-02-23T07:57:33;4.55;;;0.80;;
77432;SDS011;66752;48.576;8.876;2024-02-23T07:59:59;6.18;;;1.20;;
77432;SDS011;66752;48.576;8.876;2024-02-23T08:02:25;1.17;;;0.47;;
77432;SDS011;66752;48.576;8.876;2024-02-23T08:04:51;4.85;;;0.80;;
77432;SDS011;66752;48.576;8.876;2024-02-23T08:07:17;4.50;;;0.70;;
77432;SDS011;66752;48.576;8.876;2024-02-23T08:09:43;3.00;;;0.85;;
77432;SDS011;66752;48.576;8.876;2024-02-23T08:12:09;3.88;;;0.90;;
77432;SDS011;66752;48.576;8.876;2024-02-23T08:14:38;2.00;;;0.70;;
77432;SDS011;66752;48.576;8.876;2024-02-23T08:17:04;2.50;;;0.82;;
77432;SDS011;66752;48.576;8.876;2024-02-23T08:19:30;2.90;;;0.95;;
77432;SDS011;66752;48.576;8.876;2024-02-23T08:21:56;2.90;;;0.80;;
77432;SDS011;66752;48.576;8.876;2024-02-23T08:24:22;4.03;;;0.73;;
77432;SDS011;66752;48.576;8.876;2024-02-23T08:26:48;3.80;;;1.10;;
77432;SDS011;66752;48.576;8.876;2024-02-23T08:29:14;7.10;;;1.00;;
77432;SDS011;66752;48.576;8.876;2024-02-23T08:31:41;3.08;;;0.95;;
77432;SDS011;66752;48.576;8.876;2024-02-23T08:34:07;3.58;;;1.08;;
77432;SDS011;66752;48.576;8.876;2024-02-23T08:36:33;3.60;;;1.00;;
77432;SDS011;66752;48.576;8.876;2024-02-23T08:38:59;2.20;;;1.00;;
77432;SDS011;66752;48.576;8.876;2024-02-23T08:41:25;3.83;;;0.70;;
77432;SDS011;66752;48.576;8.876;2024-02-23T08:43:51;2.25;;;0.73;;
77432;SDS011;66752;48.576;8.876;2024-02-23T08:46:17;7.10;;;1.15;;
77432;SDS011;66752;48.576;8.876;2024-02-23T08:51:10;5.03;;;0.93;;
77432;SDS011;66752;48.576;8.876;2024-02-23T08:53:36;4.80;;;1.00;;
77432;SDS011;66752;48.576;8.876;2024-02-23T08:56:02;2.72;;;0.77;;
77432;SDS011;66752;48.576;8.876;2024-02-23T08:58:28;4.53;;;1.20;;
77432;SDS011;66752;48.576;8.876;2024-02-23T09:00:54;3.60;;;1.55;;
77432;SDS011;66752;48.576;8.876;2024-02-23T09:03:20;3.95;;;0.77;;
77432;SDS011;66752;48.576;8.876;2024-02-23T09:05:46;1.85;;;0.60;;
77432;SDS011;66752;48.576;8.876;2024-02-23T09:08:13;4.57;;;0.98;;
77432;SDS011;66752;48.576;8.876;2024-02-23T09:10:39;7.13;;;1.00;;
77432;SDS011;66752;48.576;8.876;2024-02-23T09:13:05;4.72;;;1.17;;
77432;SDS011;66752;48.576;8.876;2024-02-23T09:15:31;8.30;;;1.20;;
77432;SDS011;66752;48.576;8.876;2024-02-23T09:17:57;2.17;;;0.70;;
77432;SDS011;66752;48.576;8.876;2024-02-23T09:20:23;3.63;;;0.93;;
77432;SDS011;66752;48.576;8.876;2024-02-23T09:22:49;3.83;;;1.15;;
77432;SDS011;66752;48.576;8.876;2024-02-23T09:25:15;3.85;;;1.10;;
77432;SDS011;66752;48.576;8.876;2024-02-23T09:27:41;4.38;;;1.60;;
77432;SDS011;66752;48.576;8.876;2024-02-23T09:30:13;3.30;;;1.10;;
77432;SDS011;66752;48.576;8.876;2024-02-23T09:32:39;3.72;;;1.02;;
77432;SDS011;66752;48.576;8.876;2024-02-23T09:35:05;4.40;;;1.02;;
77432;SDS011;66752;48.576;8.876;2024-02-23T09:37:31;5.78;;;1.10;;
77432;SDS011;66752;48.576;8.876;2024-02-23T09:39:57;3.95;;;0.77;;
77432;SDS011;66752;48.576;8.876;2024-02-23T09:42:23;3.30;;;0.70;;
77432;SDS011;66752;48.576;8.876;2024-02-23T09:44:54;4.82;;;0.90;;
77432;SDS011;66752;48.576;8.876;2024-02-23T09:47:24;1.42;;;0.70;;
77432;SDS011;66752;48.576;8.876;2024-02-23T09:49:50;2.20;;;0.88;;
77432;SDS011;66752;48.576;8.876;2024-02-23T09:52:17;5.18;;;1.10;;
77432;SDS011;66752;48.576;8.876;2024-02-23T09:54:43;4.13;;;0.73;;
77432;SDS011;66752;48.576;8.876;2024-02-23T09:57:09;5.72;;;0.90;;
77432;SDS011;66752;48.576;8.876;2024-02-23T09:59:36;7.68;;;1.33;;
77432;SDS011;66752;48.576;8.876;2024-02-23T10:02:03;4.53;;;0.80;;
77432;SDS011;66752;48.576;8.876;2024-02-23T10:04:33;4.32;;;0.95;;
77432;SDS011;66752;48.576;8.876;2024-02-23T10:06:59;6.18;;;1.90;;
77432;SDS011;66752;48.576;8.876;2024-02-23T10:09:25;4.38;;;1.27;;
77432;SDS011;66752;48.576;8.876;2024-02-23T10:11:52;2.72;;;0.80;;
77432;SDS011;66752;48.576;8.876;2024-02-23T10:14:18;4.45;;;1.00;;
77432;SDS011;66752;48.576;8.876;2024-02-23T10:16:44;3.45;;;0.90;;
77432;SDS011;66752;48.576;8.876;2024-02-23T10:19:10;6.50;;;1.08;;
77432;SDS011;66752;48.576;8.876;2024-02-23T10:21:36;2.20;;;0.82;;
77432;SDS011;66752;48.576;8.876;2024-02-23T10:24:02;5.90;;;0.90;;
77432;SDS011;66752;48.576;8.876;2024-02-23T10:26:28;2.90;;;0.88;;
77432;SDS011;66752;48.576;8.876;2024-02-23T10:28:54;4.93;;;1.25;;
77432;SDS011;66752;48.576;8.876;2024-02-23T10:31:21;4.72;;;0.80;;
77432;SDS011;66752;48.576;8.876;2024-02-23T10:36:15;3.97;;;0.73;;
77432;SDS011;66752;48.576;8.876;2024-02-23T10:38:43;2.45;;;0.77;;
77432;SDS011;66752;48.576;8.876;2024-02-23T10:41:11;3.00;;;0.70;;
77432;SDS011;66752;48.576;8.876;2024-02-23T10:43:48;3.53;;;0.65;;
77432;SDS011;66752;48.576;8.876;2024-02-23T10:46:14;4.05;;;0.90;;
77432;SDS011;66752;48.576;8.876;2024-02-23T10:48:41;4.20;;;1.35;;
77432;SDS011;66752;48.576;8.876;2024-02-23T10:51:07;5.32;;;0.95;;
77432;SDS011;66752;48.576;8.876;2024-02-23T10:53:34;4.70;;;0.70;;
77432;SDS011;66752;48.576;8.876;2024-02-23T10:56:00;6.05;;;1.23;;
77432;SDS011;66752;48.576;8.876;2024-02-23T10:58:26;3.40;;;0.75;;
77432;SDS011;66752;48.576;8.876;2024-02-23T11:00:53;4.82;;;1.02;;
77432;SDS011;66752;48.576;8.876;2024-02-23T11:03:25;1.85;;;0.75;;
77432;SDS011;66752;48.576;8.876;2024-02-23T11:05:53;3.28;;;1.10;;
77432;SDS011;66752;48.576;8.876;2024-02-23T11:08:19;4.70;;;0.75;;
77432;SDS011;66752;48.576;8.876;2024-02-23T11:10:49;6.90;;;1.02;;
77432;SDS011;66752;48.576;8.876;2024-02-23T11:13:18;8.35;;;1.08;;
77432;SDS011;66752;48.576;8.876;2024-02-23T11:15:44;5.20;;;1.20;;
77432;SDS011;66752;48.576;8.876;2024-02-23T11:18:23;2.08;;;0.60;;
77432;SDS011;66752;48.576;8.876;2024-02-23T11:20:58;2.83;;;0.77;;
77432;SDS011;66752;48.576;8.876;2024-02-23T11:23:24;3.78;;;1.10;;
77432;SDS011;66752;48.576;8.876;2024-02-23T11:28:28;3.10;;;0.82;;
77432;SDS011;66752;48.576;8.876;2024-02-23T11:30:54;4.75;;;1.02;;
77432;SDS011;66752;48.576;8.876;2024-02-23T11:33:27;5.68;;;1.15;;
77432;SDS011;66752;48.576;8.876;2024-02-23T11:35:53;6.43;;;1.20;;
77432;SDS011;66752;48.576;8.876;2024-02-23T11:38:20;7.00;;;1.10;;
77432;SDS011;66752;48.576;8.876;2024-02-23T11:40:47;4.10;;;0.80;;
77432;SDS011;66752;48.576;8.876;2024-02-23T11:43:14;4.47;;;1.15;;
77432;SDS011;66752;48.576;8.876;2024-02-23T11:45:40;4.57;;;1.23;;
77432;SDS011;66752;48.576;8.876;2024-02-23T11:48:06;5.85;;;0.75;;
77432;SDS011;66752;48.576;8.876;2024-02-23T11:50:32;3.53;;;0.98;;
77432;SDS011;66752;48.576;8.876;2024-02-23T11:52:59;2.47;;;0.70;;
77432;SDS011;66752;48.576;8.876;2024-02-23T11:55:26;3.33;;;0.90;;
77432;SDS011;66752;48.576;8.876;2024-02-23T11:57:52;4.55;;;1.17;;
77432;SDS011;66752;48.576;8.876;2024-02-23T12:00:18;3.90;;;0.60;;
77432;SDS011;66752;48.576;8.876;2024-02-23T12:02:44;4.15;;;0.70;;
77432;SDS011;66752;48.576;8.876;2024-02-23T12:05:15;7.35;;;1.13;;
77432;SDS011;66752;48.576;8.876;2024-02-23T12:07:41;3.50;;;0.70;;
77432;SDS011;66752;48.576;8.876;2024-02-23T12:10:07;4.95;;;0.98;;
77432;SDS011;66752;48.576;8.876;2024-02-23T12:12:33;4.47;;;0.82;;
77432;SDS011;66752;48.576;8.876;2024-02-23T12:14:59;8.02;;;1.58;;
77432;SDS011;66752;48.576;8.876;2024-02-23T12:17:25;2.53;;;0.60;;
77432;SDS011;66752;48.576;8.876;2024-02-23T12:19:57;3.67;;;1.30;;
77432;SDS011;66752;48.576;8.876;2024-02-23T12:22:24;3.13;;;0.73;;
77432;SDS011;66752;48.576;8.876;2024-02-23T12:24:50;5.05;;;0.80;;
77432;SDS011;66752;48.576;8.876;2024-02-23T12:27:16;7.80;;;1.13;;
77432;SDS011;66752;48.576;8.876;2024-02-23T12:29:50;2.55;;;0.90;;
77432;SDS011;66752;48.576;8.876;2024-02-23T12:32:16;4.82;;;1.00;;
77432;SDS011;66752;48.576;8.876;2024-02-23T12:34:45;6.20;;;1.38;;
77432;SDS011;66752;48.576;8.876;2024-02-23T12:37:11;8.05;;;1.55;;
77432;SDS011;66752;48.576;8.876;2024-02-23T12:39:40;12.23;;;1.83;;
77432;SDS011;66752;48.576;8.876;2024-02-23T12:42:06;3.45;;;0.85;;
77432;SDS011;66752;48.576;8.876;2024-02-23T12:44:32;5.18;;;1.00;;
77432;SDS011;66752;48.576;8.876;2024-02-23T12:46:58;6.90;;;1.10;;
77432;SDS011;66752;48.576;8.876;2024-02-23T12:49:24;3.67;;;0.63;;
77432;SDS011;66752;48.576;8.876;2024-02-23T12:51:50;4.47;;;0.75;;
77432;SDS011;66752;48.576;8.876;2024-02-23T12:54:16;3.45;;;1.17;;
77432;SDS011;66752;48.576;8.876;2024-02-23T12:56:42;4.45;;;0.80;;
77432;SDS011;66752;48.576;8.876;2024-02-23T12:59:09;4.80;;;1.13;;
77432;SDS011;66752;48.576;8.876;2024-02-23T13:01:38;3.80;;;1.00;;
77432;SDS011;66752;48.576;8.876;2024-02-23T13:04:04;3.90;;;0.80;;
77432;SDS011;66752;48.576;8.876;2024-02-23T13:06:37;4.10;;;0.90;;
77432;SDS011;66752;48.576;8.876;2024-02-23T13:13:55;7.30;;;1.20;;
77432;SDS011;66752;48.576;8.876;2024-02-23T13:16:21;2.55;;;0.85;;
77432;SDS011;66752;48.576;8.876;2024-02-23T13:18:47;6.03;;;1.13;;
77432;SDS011;66752;48.576;8.876;2024-02-23T13:21:13;5.13;;;1.70;;
77432;SDS011;66752;48.576;8.876;2024-02-23T13:23:39;3.28;;;0.88;;
77432;SDS011;66752;48.576;8.876;2024-02-23T13:26:08;4.47;;;0.82;;
77432;SDS011;66752;48.576;8.876;2024-02-23T13:28:35;4.57;;;1.20;;
77432;SDS011;66752;48.576;8.876;2024-02-23T13:31:01;7.00;;;1.38;;
77432;SDS011;66752;48.576;8.876;2024-02-23T13:33:27;4.57;;;1.20;;
77432;SDS011;66752;48.576;8.876;2024-02-23T13:35:53;5.07;;;1.02;;
77432;SDS011;66752;48.576;8.876;2024-02-23T13:38:20;6.13;;;1.35;;
77432;SDS011;66752;48.576;8.876;2024-02-23T13:40:46;3.72;;;0.90;;
77432;SDS011;66752;48.576;8.876;2024-02-23T13:43:12;6.22;;;1.33;;
77432;SDS011;66752;48.576;8.876;2024-02-23T13:45:47;5.05;;;1.30;;
77432;SDS011;66752;48.576;8.876;2024-02-23T13:48:14;8.50;;;1.20;;
77432;SDS011;66752;48.576;8.876;2024-02-23T13:50:40;5.10;;;1.10;;
77432;SDS011;66752;48.576;8.876;2024-02-23T13:53:06;13.43;;;1.52;;
77432;SDS011;66752;48.576;8.876;2024-02-23T13:55:32;5.45;;;1.25;;
77432;SDS011;66752;48.576;8.876;2024-02-23T13:57:58;6.45;;;1.27;;
77432;SDS011;66752;48.576;8.876;2024-02-23T14:00:24;6.13;;;1.60;;
77432;SDS011;66752;48.576;8.876;2024-02-23T14:02:50;8.40;;;2.08;;
77432;SDS011;66752;48.576;8.876;2024-02-23T14:05:16;6.95;;;1.67;;
77432;SDS011;66752;48.576;8.876;2024-02-23T14:07:46;6.85;;;1.35;;
77432;SDS011;66752;48.576;8.876;2024-02-23T14:10:13;6.32;;;1.10;;
77432;SDS011;66752;48.576;8.876;2024-02-23T14:12:40;3.95;;;1.08;;
77432;SDS011;66752;48.576;8.876;2024-02-23T14:15:06;4.30;;;1.00;;
77432;SDS011;66752;48.576;8.876;2024-02-23T14:17:32;2.58;;;0.68;;
77432;SDS011;66752;48.576;8.876;2024-02-23T14:19:59;3.95;;;0.77;;
77432;SDS011;66752;48.576;8.876;2024-02-23T14:22:25;4.75;;;1.10;;
77432;SDS011;66752;48.576;8.876;2024-02-23T14:24:52;9.25;;;1.13;;
77432;SDS011;66752;48.576;8.876;2024-02-23T14:27:19;10.88;;;1.20;;
77432;SDS011;66752;48.576;8.876;2024-02-23T14:29:45;4.88;;;1.70;;
77432;SDS011;66752;48.576;8.876;2024-02-23T14:32:17;3.00;;;0.90;;
77432;SDS011;66752;48.576;8.876;2024-02-23T14:34:43;3.72;;;1.00;;
77432;SDS011;66752;48.576;8.876;2024-02-23T14:37:10;9.70;;;4.28;;
77432;SDS011;66752;48.576;8.876;2024-02-23T14:39:36;8.85;;;1.13;;
77432;SDS011;66752;48.576;8.876;2024-02-23T14:42:02;5.28;;;1.17;;
77432;SDS011;66752;48.576;8.876;2024-02-23T14:44:28;7.30;;;1.30;;
77432;SDS011;66752;48.576;8.876;2024-02-23T14:46:54;5.80;;;1.42;;
77432;SDS011;66752;48.576;8.876;2024-02-23T14:49:20;9.32;;;1.67;;
77432;SDS011;66752;48.576;8.876;2024-02-23T14:51:47;5.95;;;1.23;;
77432;SDS011;66752;48.576;8.876;2024-02-23T14:54:13;9.15;;;1.67;;
77432;SDS011;66752;48.576;8.876;2024-02-23T14:56:39;8.50;;;1.70;;
77432;SDS011;66752;48.576;8.876;2024-02-23T14:59:08;5.78;;;1.60;;
77432;SDS011;66752;48.576;8.876;2024-02-23T15:01:37;4.82;;;1.30;;
77432;SDS011;66752;48.576;8.876;2024-02-23T15:04:05;7.40;;;1.40;;